sensor_id;sensor_type;location;lat;lon;timestamp;temperature;humidity
39665;DHT22;26679;50.872;4.332;2023-05-07T00:02:20;18.50;99.90
39665;DHT22;26679;50.872;4.332;2023-05-07T00:04:48;18.60;99.90
39665;DHT22;26679;50.872;4.332;2023-05-07T00:07:14;18.50;99.90
39665;DHT22;26679;50.872;4.332;2023-05-07T00:09:39;18.50;99.90
39665;DHT22;26679;50.872;4.332;2023-05-07T00:12:05;18.50;99.90
39665;DHT22;26679;50.872;4.332;2023-05-07T00:14:31;18.40;99.90
39665;DHT22;26679;50.872;4.332;2023-05-07T00:16:57;18.40;99.90
39665;DHT22;26679;50.872;4.332;2023-05-07T00:19:22;18.30;99.90
39665;DHT22;26679;50.872;4.332;2023-05-07T00:21:48;18.40;99.90
39665;DHT22;26679;50.872;4.332;2023-05-07T00:24:13;18.40;99.90
39665;DHT22;26679;50.872;4.332;2023-05-07T00:26:39;18.50;99.90
39665;DHT22;26679;50.872;4.332;2023-05-07T00:31:34;18.50;99.90
39665;DHT22;26679;50.872;4.332;2023-05-07T00:34:00;18.60;99.90
39665;DHT22;26679;50.872;4.332;2023-05-07T00:36:26;18.60;99.90
39665;DHT22;26679;50.872;4.332;2023-05-07T00:38:51;18.60;99.90
39665;DHT22;26679;50.872;4.332;2023-05-07T00:41:17;18.60;99.90
39665;DHT22;26679;50.872;4.332;2023-05-07T00:43:42;18.60;99.90
39665;DHT22;26679;50.872;4.332;2023-05-07T00:46:08;18.60;99.90
39665;DHT22;26679;50.872;4.332;2023-05-07T00:48:34;18.60;99.90
39665;DHT22;26679;50.872;4.332;2023-05-07T00:50:59;18.60;99.90
39665;DHT22;26679;50.872;4.332;2023-05-07T00:53:25;18.60;99.90
39665;DHT22;26679;50.872;4.332;2023-05-07T00:55:51;18.60;99.90
39665;DHT22;26679;50.872;4.332;2023-05-07T00:58:17;18.60;99.90
39665;DHT22;26679;50.872;4.332;2023-05-07T01:00:43;18.60;99.90
39665;DHT22;26679;50.872;4.332;2023-05-07T01:03:08;18.60;99.90
39665;DHT22;26679;50.872;4.332;2023-05-07T01:05:34;19.70;99.90
39665;DHT22;26679;50.872;4.332;2023-05-07T01:08:00;17.90;99.90
39665;DHT22;26679;50.872;4.332;2023-05-07T01:10:26;18.40;99.90
39665;DHT22;26679;50.872;4.332;2023-05-07T01:12:52;18.50;99.90
39665;DHT22;26679;50.872;4.332;2023-05-07T01:15:19;18.40;99.90
39665;DHT22;26679;50.872;4.332;2023-05-07T01:17:44;18.30;99.90
39665;DHT22;26679;50.872;4.332;2023-05-07T01:20:10;18.10;99.90
39665;DHT22;26679;50.872;4.332;2023-05-07T01:22:37;18.10;99.90
39665;DHT22;26679;50.872;4.332;2023-05-07T01:25:03;18.10;99.90
39665;DHT22;26679;50.872;4.332;2023-05-07T01:27:29;18.00;99.90
39665;DHT22;26679;50.872;4.332;2023-05-07T01:29:55;17.90;99.90
39665;DHT22;26679;50.872;4.332;2023-05-07T01:32:26;17.80;99.90
39665;DHT22;26679;50.872;4.332;2023-05-07T01:34:53;17.80;99.90
39665;DHT22;26679;50.872;4.332;2023-05-07T01:37:20;17.90;99.90
39665;DHT22;26679;50.872;4.332;2023-05-07T01:39:46;17.90;99.90
39665;DHT22;26679;50.872;4.332;2023-05-07T01:42:13;17.90;99.90
39665;DHT22;26679;50.872;4.332;2023-05-07T01:44:38;17.90;99.90
39665;DHT22;26679;50.872;4.332;2023-05-07T01:47:04;17.90;99.90
39665;DHT22;26679;50.872;4.332;2023-05-07T01:49:29;18.00;99.90
39665;DHT22;26679;50.872;4.332;2023-05-07T01:51:55;18.10;99.90
39665;DHT22;26679;50.872;4.332;2023-05-07T01:54:25;18.00;99.90
39665;DHT22;26679;50.872;4.332;2023-05-07T01:56:50;18.00;99.90
39665;DHT22;26679;50.872;4.332;2023-05-07T01:59:16;18.00;99.90
39665;DHT22;26679;50.872;4.332;2023-05-07T02:01:41;17.90;99.90
39665;DHT22;26679;50.872;4.332;2023-05-07T02:04:07;17.90;99.90
39665;DHT22;26679;50.872;4.332;2023-05-07T02:06:32;17.90;99.90
39665;DHT22;26679;50.872;4.332;2023-05-07T02:08:58;17.90;99.90
39665;DHT22;26679;50.872;4.332;2023-05-07T02:11:23;17.90;99.90
39665;DHT22;26679;50.872;4.332;2023-05-07T02:13:50;17.90;99.90
39665;DHT22;26679;50.872;4.332;2023-05-07T02:16:15;17.90;99.90
39665;DHT22;26679;50.872;4.332;2023-05-07T02:18:41;17.90;99.90
39665;DHT22;26679;50.872;4.332;2023-05-07T02:21:07;17.90;99.90
39665;DHT22;26679;50.872;4.332;2023-05-07T02:23:32;17.90;99.90
39665;DHT22;26679;50.872;4.332;2023-05-07T02:25:58;17.90;99.90
39665;DHT22;26679;50.872;4.332;2023-05-07T02:28:23;17.90;99.90
39665;DHT22;26679;50.872;4.332;2023-05-07T02:30:49;17.90;99.90
39665;DHT22;26679;50.872;4.332;2023-05-07T02:33:14;18.00;99.90
39665;DHT22;26679;50.872;4.332;2023-05-07T02:35:40;17.90;99.90
39665;DHT22;26679;50.872;4.332;2023-05-07T02:38:06;17.90;99.90
39665;DHT22;26679;50.872;4.332;2023-05-07T02:40:31;17.90;99.90
39665;DHT22;26679;50.872;4.332;2023-05-07T02:42:59;17.90;99.90
39665;DHT22;26679;50.872;4.332;2023-05-07T02:45:24;17.80;99.90
39665;DHT22;26679;50.872;4.332;2023-05-07T02:47:50;17.80;99.90
39665;DHT22;26679;50.872;4.332;2023-05-07T02:50:15;17.80;99.90
39665;DHT22;26679;50.872;4.332;2023-05-07T02:52:41;17.70;99.90
39665;DHT22;26679;50.872;4.332;2023-05-07T02:55:07;17.70;99.90
39665;DHT22;26679;50.872;4.332;2023-05-07T02:57:32;17.70;99.90
39665;DHT22;26679;50.872;4.332;2023-05-07T02:59:58;17.80;99.90
39665;DHT22;26679;50.872;4.332;2023-05-07T03:02:24;17.80;99.90
39665;DHT22;26679;50.872;4.332;2023-05-07T03:04:50;17.90;99.90
39665;DHT22;26679;50.872;4.332;2023-05-07T03:07:15;17.90;99.90
39665;DHT22;26679;50.872;4.332;2023-05-07T03:09:41;17.90;99.90
39665;DHT22;26679;50.872;4.332;2023-05-07T03:12:06;17.90;99.90
39665;DHT22;26679;50.872;4.332;2023-05-07T03:14:32;17.90;99.90
39665;DHT22;26679;50.872;4.332;2023-05-07T03:16:57;17.90;99.90
39665;DHT22;26679;50.872;4.332;2023-05-07T03:19:23;18.00;99.90
39665;DHT22;26679;50.872;4.332;2023-05-07T03:21:48;18.00;99.90
39665;DHT22;26679;50.872;4.332;2023-05-07T03:24:14;18.10;99.90
39665;DHT22;26679;50.872;4.332;2023-05-07T03:26:40;18.10;99.90
39665;DHT22;26679;50.872;4.332;2023-05-07T03:29:05;18.10;99.90
39665;DHT22;26679;50.872;4.332;2023-05-07T03:31:31;18.10;99.90
39665;DHT22;26679;50.872;4.332;2023-05-07T03:33:57;17.90;99.90
39665;DHT22;26679;50.872;4.332;2023-05-07T03:36:22;18.00;99.90
39665;DHT22;26679;50.872;4.332;2023-05-07T03:38:48;18.00;99.90
39665;DHT22;26679;50.872;4.332;2023-05-07T03:41:14;18.00;99.90
39665;DHT22;26679;50.872;4.332;2023-05-07T03:43:39;18.10;99.90
39665;DHT22;26679;50.872;4.332;2023-05-07T03:46:05;18.10;99.90
39665;DHT22;26679;50.872;4.332;2023-05-07T03:48:30;18.20;99.90
39665;DHT22;26679;50.872;4.332;2023-05-07T03:50:57;18.20;99.90
39665;DHT22;26679;50.872;4.332;2023-05-07T03:53:23;18.20;99.90
39665;DHT22;26679;50.872;4.332;2023-05-07T03:55:48;18.20;99.90
39665;DHT22;26679;50.872;4.332;2023-05-07T03:58:14;18.20;99.90
39665;DHT22;26679;50.872;4.332;2023-05-07T04:00:39;18.20;99.90
39665;DHT22;26679;50.872;4.332;2023-05-07T04:03:05;18.20;99.90
39665;DHT22;26679;50.872;4.332;2023-05-07T04:05:31;18.30;99.90
39665;DHT22;26679;50.872;4.332;2023-05-07T04:07:59;18.30;99.90
39665;DHT22;26679;50.872;4.332;2023-05-07T04:10:25;18.30;99.90
39665;DHT22;26679;50.872;4.332;2023-05-07T04:12:51;18.30;99.90
39665;DHT22;26679;50.872;4.332;2023-05-07T04:15:17;18.90;99.90
39665;DHT22;26679;50.872;4.332;2023-05-07T04:17:42;18.30;99.90
39665;DHT22;26679;50.872;4.332;2023-05-07T04:20:14;18.20;99.90
39665;DHT22;26679;50.872;4.332;2023-05-07T04:22:40;18.20;99.90
39665;DHT22;26679;50.872;4.332;2023-05-07T04:25:05;18.10;99.90
39665;DHT22;26679;50.872;4.332;2023-05-07T04:27:31;18.10;99.90
39665;DHT22;26679;50.872;4.332;2023-05-07T04:29:57;18.20;99.90
39665;DHT22;26679;50.872;4.332;2023-05-07T04:32:23;18.20;99.90
39665;DHT22;26679;50.872;4.332;2023-05-07T04:34:50;18.20;99.90
39665;DHT22;26679;50.872;4.332;2023-05-07T04:37:15;18.20;99.90
39665;DHT22;26679;50.872;4.332;2023-05-07T04:39:41;18.30;99.90
39665;DHT22;26679;50.872;4.332;2023-05-07T04:42:06;18.30;99.90
39665;DHT22;26679;50.872;4.332;2023-05-07T04:44:34;18.30;99.90
39665;DHT22;26679;50.872;4.332;2023-05-07T04:47:00;18.30;99.90
39665;DHT22;26679;50.872;4.332;2023-05-07T04:49:25;18.30;99.90
39665;DHT22;26679;50.872;4.332;2023-05-07T04:51:51;18.20;99.90
39665;DHT22;26679;50.872;4.332;2023-05-07T04:54:16;18.20;99.90
39665;DHT22;26679;50.872;4.332;2023-05-07T04:56:42;18.30;99.90
39665;DHT22;26679;50.872;4.332;2023-05-07T04:59:07;18.30;99.90
39665;DHT22;26679;50.872;4.332;2023-05-07T05:01:33;18.30;99.90
39665;DHT22;26679;50.872;4.332;2023-05-07T05:03:58;18.30;99.90
39665;DHT22;26679;50.872;4.332;2023-05-07T05:06:25;18.30;99.90
39665;DHT22;26679;50.872;4.332;2023-05-07T05:08:51;18.40;99.90
39665;DHT22;26679;50.872;4.332;2023-05-07T05:11:16;18.40;99.90
39665;DHT22;26679;50.872;4.332;2023-05-07T05:13:42;18.50;99.90
39665;DHT22;26679;50.872;4.332;2023-05-07T05:16:07;18.50;99.90
39665;DHT22;26679;50.872;4.332;2023-05-07T05:18:33;18.50;99.90
39665;DHT22;26679;50.872;4.332;2023-05-07T05:20:58;18.60;99.90
39665;DHT22;26679;50.872;4.332;2023-05-07T05:23:24;18.70;99.90
39665;DHT22;26679;50.872;4.332;2023-05-07T05:25:49;18.70;99.90
39665;DHT22;26679;50.872;4.332;2023-05-07T05:28:15;18.70;99.90
39665;DHT22;26679;50.872;4.332;2023-05-07T05:30:40;18.70;99.90
39665;DHT22;26679;50.872;4.332;2023-05-07T05:33:06;18.70;99.90
39665;DHT22;26679;50.872;4.332;2023-05-07T05:35:31;18.70;99.90
39665;DHT22;26679;50.872;4.332;2023-05-07T05:37:57;18.70;99.90
39665;DHT22;26679;50.872;4.332;2023-05-07T05:40:23;18.70;99.90
39665;DHT22;26679;50.872;4.332;2023-05-07T05:42:48;18.70;99.90
39665;DHT22;26679;50.872;4.332;2023-05-07T05:45:14;18.60;99.90
39665;DHT22;26679;50.872;4.332;2023-05-07T05:47:40;18.60;99.90
39665;DHT22;26679;50.872;4.332;2023-05-07T05:50:07;18.70;99.90
39665;DHT22;26679;50.872;4.332;2023-05-07T05:52:33;18.60;99.90
39665;DHT22;26679;50.872;4.332;2023-05-07T05:54:59;18.60;99.90
39665;DHT22;26679;50.872;4.332;2023-05-07T05:57:25;18.60;99.90
39665;DHT22;26679;50.872;4.332;2023-05-07T05:59:51;18.40;99.90
39665;DHT22;26679;50.872;4.332;2023-05-07T06:02:17;18.20;99.90
39665;DHT22;26679;50.872;4.332;2023-05-07T06:04:43;18.10;99.90
39665;DHT22;26679;50.872;4.332;2023-05-07T06:07:08;17.40;99.90
39665;DHT22;26679;50.872;4.332;2023-05-07T06:09:34;18.30;99.90
39665;DHT22;26679;50.872;4.332;2023-05-07T06:12:00;17.80;99.90
39665;DHT22;26679;50.872;4.332;2023-05-07T06:14:25;17.70;99.90
39665;DHT22;26679;50.872;4.332;2023-05-07T06:16:51;16.60;99.90
39665;DHT22;26679;50.872;4.332;2023-05-07T06:19:17;17.70;99.90
39665;DHT22;26679;50.872;4.332;2023-05-07T06:22:02;17.60;99.90
39665;DHT22;26679;50.872;4.332;2023-05-07T06:24:28;17.60;99.90
39665;DHT22;26679;50.872;4.332;2023-05-07T06:26:54;17.60;99.90
39665;DHT22;26679;50.872;4.332;2023-05-07T06:29:19;17.60;99.90
39665;DHT22;26679;50.872;4.332;2023-05-07T06:31:45;17.70;99.90
39665;DHT22;26679;50.872;4.332;2023-05-07T06:34:12;17.60;99.90
39665;DHT22;26679;50.872;4.332;2023-05-07T06:36:41;17.10;99.90
39665;DHT22;26679;50.872;4.332;2023-05-07T06:39:06;17.70;99.90
39665;DHT22;26679;50.872;4.332;2023-05-07T06:41:32;17.80;99.90
39665;DHT22;26679;50.872;4.332;2023-05-07T06:43:58;17.80;99.90
39665;DHT22;26679;50.872;4.332;2023-05-07T06:46:23;17.80;99.90
39665;DHT22;26679;50.872;4.332;2023-05-07T06:48:49;17.70;99.90
39665;DHT22;26679;50.872;4.332;2023-05-07T06:51:16;17.50;99.90
39665;DHT22;26679;50.872;4.332;2023-05-07T06:53:41;17.30;99.90
39665;DHT22;26679;50.872;4.332;2023-05-07T06:56:07;17.30;99.90
39665;DHT22;26679;50.872;4.332;2023-05-07T06:58:32;17.20;99.90
39665;DHT22;26679;50.872;4.332;2023-05-07T07:00:58;17.10;99.90
39665;DHT22;26679;50.872;4.332;2023-05-07T07:03:23;17.10;99.90
39665;DHT22;26679;50.872;4.332;2023-05-07T07:05:52;16.90;99.90
39665;DHT22;26679;50.872;4.332;2023-05-07T07:08:18;16.80;99.90
39665;DHT22;26679;50.872;4.332;2023-05-07T07:10:47;16.80;99.90
39665;DHT22;26679;50.872;4.332;2023-05-07T07:13:14;16.70;99.90
39665;DHT22;26679;50.872;4.332;2023-05-07T07:25:55;16.80;99.90
39665;DHT22;26679;50.872;4.332;2023-05-07T07:28:21;16.70;99.90
39665;DHT22;26679;50.872;4.332;2023-05-07T07:30:47;16.70;99.90
39665;DHT22;26679;50.872;4.332;2023-05-07T07:35:44;16.80;99.90
39665;DHT22;26679;50.872;4.332;2023-05-07T07:38:10;16.80;99.90
39665;DHT22;26679;50.872;4.332;2023-05-07T07:40:36;16.80;99.90
39665;DHT22;26679;50.872;4.332;2023-05-07T07:43:01;16.90;99.90
39665;DHT22;26679;50.872;4.332;2023-05-07T07:53:13;16.90;99.90
39665;DHT22;26679;50.872;4.332;2023-05-07T07:55:39;16.80;99.90
39665;DHT22;26679;50.872;4.332;2023-05-07T07:58:05;16.80;99.90
39665;DHT22;26679;50.872;4.332;2023-05-07T08:00:30;16.80;99.90
39665;DHT22;26679;50.872;4.332;2023-05-07T08:02:56;16.80;99.90
39665;DHT22;26679;50.872;4.332;2023-05-07T08:05:40;16.80;99.90
39665;DHT22;26679;50.872;4.332;2023-05-07T08:08:05;17.00;99.90
39665;DHT22;26679;50.872;4.332;2023-05-07T08:10:31;17.00;99.90
39665;DHT22;26679;50.872;4.332;2023-05-07T08:12:59;17.00;99.90
39665;DHT22;26679;50.872;4.332;2023-05-07T08:15:26;16.90;99.90
39665;DHT22;26679;50.872;4.332;2023-05-07T08:17:52;16.90;99.90
39665;DHT22;26679;50.872;4.332;2023-05-07T08:20:18;17.00;99.90
39665;DHT22;26679;50.872;4.332;2023-05-07T08:22:43;17.00;99.90
39665;DHT22;26679;50.872;4.332;2023-05-07T09:01:43;17.00;99.90
39665;DHT22;26679;50.872;4.332;2023-05-07T09:07:04;17.10;99.90
39665;DHT22;26679;50.872;4.332;2023-05-07T09:09:32;17.20;99.90
39665;DHT22;26679;50.872;4.332;2023-05-07T09:11:58;17.20;99.90
39665;DHT22;26679;50.872;4.332;2023-05-07T09:14:29;17.20;99.90
39665;DHT22;26679;50.872;4.332;2023-05-07T09:16:55;17.20;99.90
39665;DHT22;26679;50.872;4.332;2023-05-07T09:19:25;17.20;99.90
39665;DHT22;26679;50.872;4.332;2023-05-07T09:24:28;17.60;99.90
39665;DHT22;26679;50.872;4.332;2023-05-07T09:26:59;17.70;99.90
39665;DHT22;26679;50.872;4.332;2023-05-07T09:29:25;17.60;99.90
39665;DHT22;26679;50.872;4.332;2023-05-07T09:31:51;17.70;99.90
39665;DHT22;26679;50.872;4.332;2023-05-07T09:34:16;17.70;99.90
39665;DHT22;26679;50.872;4.332;2023-05-07T09:36:42;17.70;99.90
39665;DHT22;26679;50.872;4.332;2023-05-07T09:39:07;17.70;99.90
39665;DHT22;26679;50.872;4.332;2023-05-07T09:41:33;17.80;99.90
39665;DHT22;26679;50.872;4.332;2023-05-07T09:44:08;17.90;99.90
39665;DHT22;26679;50.872;4.332;2023-05-07T09:46:34;17.90;99.90
39665;DHT22;26679;50.872;4.332;2023-05-07T09:49:01;17.90;99.90
39665;DHT22;26679;50.872;4.332;2023-05-07T09:51:34;18.00;99.90
39665;DHT22;26679;50.872;4.332;2023-05-07T09:54:01;18.00;99.90
39665;DHT22;26679;50.872;4.332;2023-05-07T09:56:29;18.10;99.90
39665;DHT22;26679;50.872;4.332;2023-05-07T09:58:56;18.00;99.90
39665;DHT22;26679;50.872;4.332;2023-05-07T10:01:22;17.90;99.90
39665;DHT22;26679;50.872;4.332;2023-05-07T10:03:49;17.90;99.90
39665;DHT22;26679;50.872;4.332;2023-05-07T10:06:15;18.80;99.90
39665;DHT22;26679;50.872;4.332;2023-05-07T10:08:42;17.60;99.90
39665;DHT22;26679;50.872;4.332;2023-05-07T10:11:08;17.40;99.90
39665;DHT22;26679;50.872;4.332;2023-05-07T10:13:35;17.10;99.90
39665;DHT22;26679;50.872;4.332;2023-05-07T10:16:02;17.00;99.90
39665;DHT22;26679;50.872;4.332;2023-05-07T10:18:29;17.20;99.90
39665;DHT22;26679;50.872;4.332;2023-05-07T10:21:01;17.40;99.90
39665;DHT22;26679;50.872;4.332;2023-05-07T10:23:27;17.50;99.90
39665;DHT22;26679;50.872;4.332;2023-05-07T10:25:53;17.60;99.90
39665;DHT22;26679;50.872;4.332;2023-05-07T10:28:20;17.50;99.90
39665;DHT22;26679;50.872;4.332;2023-05-07T10:30:58;17.60;99.90
39665;DHT22;26679;50.872;4.332;2023-05-07T10:33:28;17.70;99.90
39665;DHT22;26679;50.872;4.332;2023-05-07T10:35:58;17.70;99.90
39665;DHT22;26679;50.872;4.332;2023-05-07T10:38:26;17.70;99.90
39665;DHT22;26679;50.872;4.332;2023-05-07T10:40:52;17.70;99.90
39665;DHT22;26679;50.872;4.332;2023-05-07T10:43:18;17.70;99.90
39665;DHT22;26679;50.872;4.332;2023-05-07T10:45:43;17.60;99.90
39665;DHT22;26679;50.872;4.332;2023-05-07T10:48:12;17.70;99.90
39665;DHT22;26679;50.872;4.332;2023-05-07T10:50:42;17.80;99.90
39665;DHT22;26679;50.872;4.332;2023-05-07T11:06:20;17.70;99.90
39665;DHT22;26679;50.872;4.332;2023-05-07T11:11:18;17.90;99.90
39665;DHT22;26679;50.872;4.332;2023-05-07T11:18:48;18.00;99.90
39665;DHT22;26679;50.872;4.332;2023-05-07T11:26:20;17.80;99.90
39665;DHT22;26679;50.872;4.332;2023-05-07T11:28:46;17.70;99.90
39665;DHT22;26679;50.872;4.332;2023-05-07T11:31:12;17.70;99.90
39665;DHT22;26679;50.872;4.332;2023-05-07T11:33:38;17.70;99.90
39665;DHT22;26679;50.872;4.332;2023-05-07T11:36:04;17.70;99.90
39665;DHT22;26679;50.872;4.332;2023-05-07T11:38:29;17.90;99.90
39665;DHT22;26679;50.872;4.332;2023-05-07T11:40:56;17.90;99.90
39665;DHT22;26679;50.872;4.332;2023-05-07T11:43:21;17.80;99.90
39665;DHT22;26679;50.872;4.332;2023-05-07T11:45:47;17.90;99.90
39665;DHT22;26679;50.872;4.332;2023-05-07T11:48:13;18.00;99.90
39665;DHT22;26679;50.872;4.332;2023-05-07T11:53:16;18.30;99.90
39665;DHT22;26679;50.872;4.332;2023-05-07T11:55:42;18.30;99.90
39665;DHT22;26679;50.872;4.332;2023-05-07T11:58:09;18.30;99.90
39665;DHT22;26679;50.872;4.332;2023-05-07T12:00:35;18.30;99.90
39665;DHT22;26679;50.872;4.332;2023-05-07T12:03:04;18.30;99.90
39665;DHT22;26679;50.872;4.332;2023-05-07T12:05:29;18.30;99.90
39665;DHT22;26679;50.872;4.332;2023-05-07T12:07:56;18.40;99.90
39665;DHT22;26679;50.872;4.332;2023-05-07T12:10:22;18.50;99.90
39665;DHT22;26679;50.872;4.332;2023-05-07T12:12:47;18.50;99.90
39665;DHT22;26679;50.872;4.332;2023-05-07T12:15:16;18.50;99.90
39665;DHT22;26679;50.872;4.332;2023-05-07T12:17:42;18.60;99.90
39665;DHT22;26679;50.872;4.332;2023-05-07T12:20:15;18.70;99.90
39665;DHT22;26679;50.872;4.332;2023-05-07T12:22:42;18.70;99.90
39665;DHT22;26679;50.872;4.332;2023-05-07T12:25:08;18.70;99.90
39665;DHT22;26679;50.872;4.332;2023-05-07T12:27:36;18.90;99.90
39665;DHT22;26679;50.872;4.332;2023-05-07T12:30:09;18.00;99.90
39665;DHT22;26679;50.872;4.332;2023-05-07T13:04:02;19.60;99.90
39665;DHT22;26679;50.872;4.332;2023-05-07T13:06:29;19.70;99.90
39665;DHT22;26679;50.872;4.332;2023-05-07T13:08:55;19.80;99.90
39665;DHT22;26679;50.872;4.332;2023-05-07T13:13:55;19.70;99.90
39665;DHT22;26679;50.872;4.332;2023-05-07T13:16:31;19.40;99.90
39665;DHT22;26679;50.872;4.332;2023-05-07T13:18:58;19.60;99.90
39665;DHT22;26679;50.872;4.332;2023-05-07T13:21:23;19.60;99.90
39665;DHT22;26679;50.872;4.332;2023-05-07T13:23:49;19.60;99.90
39665;DHT22;26679;50.872;4.332;2023-05-07T13:28:53;19.60;99.90
39665;DHT22;26679;50.872;4.332;2023-05-07T13:44:15;19.30;99.90
39665;DHT22;26679;50.872;4.332;2023-05-07T13:46:41;19.30;99.90
39665;DHT22;26679;50.872;4.332;2023-05-07T13:49:07;19.30;99.90
39665;DHT22;26679;50.872;4.332;2023-05-07T13:51:32;19.20;99.90
39665;DHT22;26679;50.872;4.332;2023-05-07T13:53:58;19.20;99.90
39665;DHT22;26679;50.872;4.332;2023-05-07T13:56:24;19.30;99.90
39665;DHT22;26679;50.872;4.332;2023-05-07T13:58:50;19.30;99.90
39665;DHT22;26679;50.872;4.332;2023-05-07T14:01:19;17.90;99.90
39665;DHT22;26679;50.872;4.332;2023-05-07T14:03:45;19.40;99.90
39665;DHT22;26679;50.872;4.332;2023-05-07T14:06:11;19.40;99.90
39665;DHT22;26679;50.872;4.332;2023-05-07T14:26:44;20.00;99.90
39665;DHT22;26679;50.872;4.332;2023-05-07T14:29:10;20.10;99.90
39665;DHT22;26679;50.872;4.332;2023-05-07T14:34:16;20.10;99.90
39665;DHT22;26679;50.872;4.332;2023-05-07T14:36:45;20.10;99.90
39665;DHT22;26679;50.872;4.332;2023-05-07T14:39:12;20.00;99.90
39665;DHT22;26679;50.872;4.332;2023-05-07T14:41:57;19.70;99.90
39665;DHT22;26679;50.872;4.332;2023-05-07T14:44:23;19.80;99.90
39665;DHT22;26679;50.872;4.332;2023-05-07T14:46:49;19.90;99.90
39665;DHT22;26679;50.872;4.332;2023-05-07T14:49:16;20.00;99.90
39665;DHT22;26679;50.872;4.332;2023-05-07T14:51:43;19.90;99.90
39665;DHT22;26679;50.872;4.332;2023-05-07T14:54:12;20.00;99.90
39665;DHT22;26679;50.872;4.332;2023-05-07T14:56:38;20.00;99.90
39665;DHT22;26679;50.872;4.332;2023-05-07T14:59:04;20.00;99.90
39665;DHT22;26679;50.872;4.332;2023-05-07T15:01:37;20.10;99.90
39665;DHT22;26679;50.872;4.332;2023-05-07T15:04:05;20.00;99.90
39665;DHT22;26679;50.872;4.332;2023-05-07T15:06:34;20.10;99.90
39665;DHT22;26679;50.872;4.332;2023-05-07T15:09:01;18.80;99.90
39665;DHT22;26679;50.872;4.332;2023-05-07T15:11:28;20.20;99.90
39665;DHT22;26679;50.872;4.332;2023-05-07T15:13:54;20.10;99.90
39665;DHT22;26679;50.872;4.332;2023-05-07T15:16:19;20.20;99.90
39665;DHT22;26679;50.872;4.332;2023-05-07T15:18:47;20.10;99.90
39665;DHT22;26679;50.872;4.332;2023-05-07T15:21:44;20.10;99.90
39665;DHT22;26679;50.872;4.332;2023-05-07T15:34:52;19.90;99.90
39665;DHT22;26679;50.872;4.332;2023-05-07T15:37:17;19.80;99.90
39665;DHT22;26679;50.872;4.332;2023-05-07T15:39:43;19.70;99.90
39665;DHT22;26679;50.872;4.332;2023-05-07T15:42:08;19.80;99.90
39665;DHT22;26679;50.872;4.332;2023-05-07T15:44:35;20.10;99.90
39665;DHT22;26679;50.872;4.332;2023-05-07T15:47:01;19.90;99.90
39665;DHT22;26679;50.872;4.332;2023-05-07T15:49:28;19.90;99.90
39665;DHT22;26679;50.872;4.332;2023-05-07T15:51:55;19.90;99.90
39665;DHT22;26679;50.872;4.332;2023-05-07T15:54:22;20.00;99.90
39665;DHT22;26679;50.872;4.332;2023-05-07T15:56:48;19.90;99.90
39665;DHT22;26679;50.872;4.332;2023-05-07T15:59:15;19.90;99.90
39665;DHT22;26679;50.872;4.332;2023-05-07T16:01:41;19.90;99.90
39665;DHT22;26679;50.872;4.332;2023-05-07T16:04:07;19.90;99.90
39665;DHT22;26679;50.872;4.332;2023-05-07T16:06:32;19.90;99.90
39665;DHT22;26679;50.872;4.332;2023-05-07T16:08:58;20.00;99.90
39665;DHT22;26679;50.872;4.332;2023-05-07T16:11:24;20.00;99.90
39665;DHT22;26679;50.872;4.332;2023-05-07T16:13:50;20.00;99.90
39665;DHT22;26679;50.872;4.332;2023-05-07T16:16:15;19.90;99.90
39665;DHT22;26679;50.872;4.332;2023-05-07T16:18:43;19.90;99.90
39665;DHT22;26679;50.872;4.332;2023-05-07T16:21:09;19.80;99.90
39665;DHT22;26679;50.872;4.332;2023-05-07T16:23:37;19.60;99.90
39665;DHT22;26679;50.872;4.332;2023-05-07T16:26:03;19.50;99.90
39665;DHT22;26679;50.872;4.332;2023-05-07T16:28:29;19.50;99.90
39665;DHT22;26679;50.872;4.332;2023-05-07T16:30:55;19.50;99.90
39665;DHT22;26679;50.872;4.332;2023-05-07T16:33:23;19.50;99.90
39665;DHT22;26679;50.872;4.332;2023-05-07T16:35:51;19.40;99.90
39665;DHT22;26679;50.872;4.332;2023-05-07T16:38:17;19.40;99.90
39665;DHT22;26679;50.872;4.332;2023-05-07T16:40:45;20.70;99.90
39665;DHT22;26679;50.872;4.332;2023-05-07T16:43:17;19.40;99.90
39665;DHT22;26679;50.872;4.332;2023-05-07T16:45:43;19.30;99.90
39665;DHT22;26679;50.872;4.332;2023-05-07T16:48:11;19.50;99.90
39665;DHT22;26679;50.872;4.332;2023-05-07T16:50:40;19.40;99.90
39665;DHT22;26679;50.872;4.332;2023-05-07T16:53:14;19.40;99.90
39665;DHT22;26679;50.872;4.332;2023-05-07T16:55:40;19.40;99.90
39665;DHT22;26679;50.872;4.332;2023-05-07T17:03:12;19.20;99.90
39665;DHT22;26679;50.872;4.332;2023-05-07T17:05:38;19.20;99.90
39665;DHT22;26679;50.872;4.332;2023-05-07T17:08:03;19.30;99.90
39665;DHT22;26679;50.872;4.332;2023-05-07T17:10:29;19.50;99.90
39665;DHT22;26679;50.872;4.332;2023-05-07T17:12:54;19.40;99.90
39665;DHT22;26679;50.872;4.332;2023-05-07T17:15:20;19.40;99.90
39665;DHT22;26679;50.872;4.332;2023-05-07T17:17:46;19.40;99.90
39665;DHT22;26679;50.872;4.332;2023-05-07T17:20:11;19.40;99.90
39665;DHT22;26679;50.872;4.332;2023-05-07T17:22:37;19.40;99.90
39665;DHT22;26679;50.872;4.332;2023-05-07T17:25:04;19.40;99.90
39665;DHT22;26679;50.872;4.332;2023-05-07T17:27:32;19.40;99.90
39665;DHT22;26679;50.872;4.332;2023-05-07T17:30:01;19.40;99.90
39665;DHT22;26679;50.872;4.332;2023-05-07T17:32:27;19.50;99.90
39665;DHT22;26679;50.872;4.332;2023-05-07T17:34:54;19.40;99.90
39665;DHT22;26679;50.872;4.332;2023-05-07T17:37:20;19.50;99.90
39665;DHT22;26679;50.872;4.332;2023-05-07T17:39:45;19.50;99.90
39665;DHT22;26679;50.872;4.332;2023-05-07T17:42:11;19.50;99.90
39665;DHT22;26679;50.872;4.332;2023-05-07T17:44:38;19.50;99.90
39665;DHT22;26679;50.872;4.332;2023-05-07T17:47:03;19.40;99.90
39665;DHT22;26679;50.872;4.332;2023-05-07T17:49:29;19.50;99.90
39665;DHT22;26679;50.872;4.332;2023-05-07T17:51:56;19.40;99.90
39665;DHT22;26679;50.872;4.332;2023-05-07T17:54:24;19.40;99.90
39665;DHT22;26679;50.872;4.332;2023-05-07T17:56:51;19.30;99.90
39665;DHT22;26679;50.872;4.332;2023-05-07T17:59:16;19.30;99.90
39665;DHT22;26679;50.872;4.332;2023-05-07T18:01:42;19.20;99.90
39665;DHT22;26679;50.872;4.332;2023-05-07T18:04:08;19.20;99.90
39665;DHT22;26679;50.872;4.332;2023-05-07T18:06:34;19.20;99.90
39665;DHT22;26679;50.872;4.332;2023-05-07T18:08:59;19.10;99.90
39665;DHT22;26679;50.872;4.332;2023-05-07T18:11:25;19.10;99.90
39665;DHT22;26679;50.872;4.332;2023-05-07T18:13:52;19.00;99.90
39665;DHT22;26679;50.872;4.332;2023-05-07T18:16:17;19.10;99.90
39665;DHT22;26679;50.872;4.332;2023-05-07T18:18:44;19.10;99.90
39665;DHT22;26679;50.872;4.332;2023-05-07T18:21:11;19.00;99.90
39665;DHT22;26679;50.872;4.332;2023-05-07T18:23:43;19.00;99.90
39665;DHT22;26679;50.872;4.332;2023-05-07T18:41:35;18.80;99.90